Time;durP1;ratioP1;P1;durP2;ratioP2;P2;SDS_P1;SDS_P2;PMS_P1;PMS_P2;Temp;Humidity;BMP_temperature;BMP_pressure;BME280_temperature;BME280_humidity;BME280_pressure;Samples;Min_cycle;Max_cycle;Signal;HPM_P1;HPM_P2
2022/09/06 00:00:10;;;;;;;4.60;3.77;;;20.50;99.90;;;;;;4975600;28;20992;-73
2022/09/06 00:02:36;;;;;;;5.03;4.00;;;20.00;99.90;;;;;;4993962;28;20510;-72
2022/09/06 00:05:03;;;;;;;4.03;2.93;;;19.70;99.90;;;;;;4993918;28;20932;-72
2022/09/06 00:07:29;;;;;;;6.80;4.00;;;19.00;99.90;;;;;;4993655;28;20811;-72
2022/09/06 00:09:55;;;;;;;7.67;3.37;;;18.70;99.90;;;;;;4993261;28;20470;-72
2022/09/06 00:12:22;;;;;;;5.53;3.30;;;18.60;99.90;;;;;;4993793;28;20219;-75
2022/09/06 00:14:48;;;;;;;4.03;2.73;;;18.50;99.90;;;;;;4993958;28;20466;-75
2022/09/06 00:17:14;;;;;;;4.83;3.87;;;18.40;99.90;;;;;;4993797;28;20967;-75
2022/09/06 00:19:39;;;;;;;8.87;4.07;;;18.20;99.90;;;;;;4993643;28;20502;-75
2022/09/06 00:22:05;;;;;;;10.67;4.27;;;18.00;99.90;;;;;;4993427;28;20192;-75
2022/09/06 00:24:31;;;;;;;13.47;4.17;;;17.90;99.90;;;;;;4993757;28;20183;-75
2022/09/06 00:26:56;;;;;;;6.40;4.87;;;17.80;99.90;;;;;;4993706;28;20669;-75
2022/09/06 00:29:22;;;;;;;7.40;4.70;;;17.70;99.90;;;;;;4993663;28;20200;-75
2022/09/06 00:31:47;;;;;;;14.73;5.00;;;17.60;99.90;;;;;;4993074;28;20621;-74
2022/09/06 00:34:13;;;;;;;7.40;4.57;;;17.60;99.90;;;;;;4992584;28;20192;-73
2022/09/06 00:36:38;;;;;;;13.67;5.40;;;17.60;99.90;;;;;;4993636;28;20187;-73
2022/09/06 00:39:04;;;;;;;10.23;5.57;;;17.50;99.90;;;;;;4993619;28;20281;-72
2022/09/06 00:41:30;;;;;;;8.57;5.50;;;17.60;99.90;;;;;;4992144;28;20204;-71
2022/09/06 00:43:56;;;;;;;8.87;5.30;;;17.50;99.90;;;;;;4992384;28;20196;-72
2022/09/06 00:46:25;;;;;;;7.10;5.10;;;17.50;99.90;;;;;;4993559;28;20450;-72
2022/09/06 00:48:56;;;;;;;9.70;5.50;;;17.50;99.90;;;;;;4993523;28;20802;-72
2022/09/06 00:51:25;;;;;;;6.97;5.40;;;17.40;99.90;;;;;;4993339;28;20895;-71
2022/09/06 00:53:51;;;;;;;7.40;5.23;;;17.50;99.90;;;;;;4993323;28;20430;-71
2022/09/06 00:56:17;;;;;;;9.57;5.70;;;17.50;99.90;;;;;;4976197;28;20843;-72
2022/09/06 00:58:43;;;;;;;9.80;5.30;;;17.40;99.90;;;;;;4993350;28;20419;-72
2022/09/06 01:01:08;;;;;;;7.17;5.23;;;17.30;99.90;;;;;;4993057;28;20506;-72
2022/09/06 01:03:35;;;;;;;14.40;5.80;;;17.40;99.90;;;;;;4993624;28;20411;-72
2022/09/06 01:06:12;;;;;;;12.17;6.10;;;17.40;99.90;;;;;;4993483;28;20259;-73
2022/09/06 01:08:59;;;;;;;14.30;6.00;;;17.40;99.90;;;;;;4993447;28;20433;-72
2022/09/06 01:11:30;;;;;;;10.07;5.40;;;17.40;99.90;;;;;;4993876;28;20537;-71
2022/09/06 01:14:12;;;;;;;20.93;5.53;;;17.50;99.90;;;;;;4996845;28;20420;-72
2022/09/06 01:16:44;;;;;;;6.50;5.53;;;17.60;99.90;;;;;;4996972;28;20820;-71
2022/09/06 01:19:39;;;;;;;8.90;5.83;;;17.60;99.90;;;;;;4996849;28;20780;-72
2022/09/06 01:22:33;;;;;;;8.30;5.63;;;17.60;99.90;;;;;;4996246;28;20492;-71
2022/09/06 01:25:19;;;;;;;8.63;5.47;;;17.40;99.90;;;;;;4996763;28;20429;-71
2022/09/06 01:28:18;;;;;;;9.00;6.20;;;17.40;99.90;;;;;;4996729;28;20415;-71
2022/09/06 01:30:56;;;;;;;7.57;5.40;;;17.40;99.90;;;;;;4996142;28;20483;-71
2022/09/06 01:33:31;;;;;;;9.63;6.30;;;17.30;99.90;;;;;;4996547;28;20498;-71
2022/09/06 01:36:05;;;;;;;11.70;5.70;;;17.40;99.90;;;;;;4996379;28;20439;-71
2022/09/06 01:38:31;;;;;;;7.77;5.90;;;17.40;99.90;;;;;;4996376;28;20386;-71
2022/09/06 01:40:57;;;;;;;7.90;5.60;;;17.30;99.90;;;;;;4994854;28;20427;-72
2022/09/06 01:43:31;;;;;;;7.53;6.40;;;17.30;99.90;;;;;;4996577;28;20204;-71
2022/09/06 01:46:05;;;;;;;7.50;6.70;;;17.30;99.90;;;;;;4996226;28;20175;-72
2022/09/06 01:48:43;;;;;;;8.77;6.90;;;17.30;99.90;;;;;;4996030;28;20422;-72
2022/09/06 01:51:40;;;;;;;8.60;6.53;;;17.30;99.90;;;;;;4995692;28;20465;-72
2022/09/06 01:54:06;;;;;;;7.67;6.60;;;17.40;99.90;;;;;;4995997;28;20439;-71
2022/09/06 01:57:07;;;;;;;8.73;5.77;;;17.40;99.90;;;;;;4994972;28;20478;-72
2022/09/06 01:59:48;;;;;;;8.53;7.63;;;17.40;99.90;;;;;;4996260;28;20180;-71
2022/09/06 02:02:19;;;;;;;11.63;6.50;;;17.40;99.90;;;;;;4996081;28;20438;-72
2022/09/06 02:05:05;;;;;;;9.57;7.63;;;17.40;99.90;;;;;;4994810;28;20470;-71
2022/09/06 02:07:33;;;;;;;9.93;6.80;;;17.50;99.90;;;;;;4996049;28;20510;-72
2022/09/06 02:10:06;;;;;;;9.73;6.90;;;17.40;99.90;;;;;;4995429;28;20484;-72
2022/09/06 02:12:36;;;;;;;16.03;6.20;;;17.30;99.90;;;;;;4995761;28;20550;-72
2022/09/06 02:15:09;;;;;;;8.33;6.70;;;17.40;99.90;;;;;;4995754;28;20423;-72
2022/09/06 02:17:40;;;;;;;10.37;6.67;;;17.40;99.90;;;;;;4995943;28;20430;-72
2022/09/06 02:20:21;;;;;;;7.93;7.13;;;17.50;99.90;;;;;;4995474;28;20407;-72
2022/09/06 02:22:49;;;;;;;18.20;7.00;;;17.50;99.90;;;;;;4994999;28;20809;-71
2022/09/06 02:25:24;;;;;;;9.03;6.30;;;17.40;99.90;;;;;;4994440;28;20924;-71
2022/09/06 02:27:49;;;;;;;8.07;6.60;;;17.50;99.90;;;;;;4995531;28;20415;-71
2022/09/06 02:30:15;;;;;;;11.07;6.97;;;17.70;99.90;;;;;;4995024;28;20521;-72
2022/09/06 02:32:54;;;;;;;7.80;6.20;;;17.60;99.90;;;;;;4993995;28;20223;-72
2022/09/06 02:35:20;;;;;;;10.03;7.77;;;17.40;99.90;;;;;;4995341;28;20419;-72
2022/09/06 02:37:46;;;;;;;9.00;6.80;;;17.50;99.90;;;;;;4995354;28;20416;-72
2022/09/06 02:40:11;;;;;;;7.87;6.97;;;17.50;99.90;;;;;;4994858;28;20427;-71
2022/09/06 02:42:39;;;;;;;7.20;6.50;;;17.60;99.90;;;;;;4995177;28;20189;-72
2022/09/06 02:45:05;;;;;;;10.53;7.40;;;17.60;99.90;;;;;;4993952;28;20553;-73
2022/09/06 02:47:30;;;;;;;9.80;7.30;;;17.70;99.90;;;;;;4994187;28;20419;-71
2022/09/06 02:49:56;;;;;;;10.67;7.30;;;17.70;99.90;;;;;;4994886;28;20463;-72
2022/09/06 02:52:21;;;;;;;9.87;7.17;;;17.80;99.90;;;;;;4995400;28;20258;-72
2022/09/06 02:54:47;;;;;;;7.47;6.73;;;17.80;99.90;;;;;;4994894;28;20680;-72
2022/09/06 02:57:13;;;;;;;8.17;7.37;;;17.60;99.90;;;;;;4995047;28;20187;-72
2022/09/06 02:59:38;;;;;;;9.37;6.77;;;17.50;99.90;;;;;;4993573;28;20184;-72
2022/09/06 03:02:04;;;;;;;7.03;6.30;;;17.50;99.90;;;;;;4993573;28;20204;-72
2022/09/06 03:04:30;;;;;;;18.03;7.90;;;17.60;99.90;;;;;;4993679;28;20192;-72
2022/09/06 03:06:56;;;;;;;8.10;6.53;;;17.60;99.90;;;;;;4994693;28;20550;-72
2022/09/06 03:09:21;;;;;;;8.40;6.53;;;17.40;99.90;;;;;;4994646;28;20520;-71
2022/09/06 03:11:47;;;;;;;7.30;6.60;;;17.40;99.90;;;;;;4994529;28;20235;-72
2022/09/06 03:14:15;;;;;;;8.80;6.33;;;17.50;99.90;;;;;;4994787;28;20173;-71
2022/09/06 03:16:40;;;;;;;8.73;6.27;;;17.50;99.90;;;;;;4993608;28;20181;-71
2022/09/06 03:19:06;;;;;;;12.90;7.57;;;17.40;99.90;;;;;;4994514;28;20433;-71
2022/09/06 03:21:31;;;;;;;15.53;7.67;;;17.40;99.90;;;;;;4994227;28;20713;-72
2022/09/06 03:23:58;;;;;;;8.73;7.40;;;17.30;99.90;;;;;;4994502;28;20645;-72
2022/09/06 03:26:24;;;;;;;9.27;7.67;;;17.30;99.90;;;;;;4977251;28;20671;-71
2022/09/06 03:28:49;;;;;;;8.60;7.70;;;17.20;99.90;;;;;;4994154;28;20455;-72
2022/09/06 03:31:15;;;;;;;15.40;7.80;;;17.30;99.90;;;;;;4992552;28;20459;-72
2022/09/06 03:33:40;;;;;;;10.47;7.57;;;17.30;99.90;;;;;;4994199;28;20307;-72
2022/09/06 03:36:06;;;;;;;8.30;6.90;;;17.30;99.90;;;;;;4993527;28;20649;-72
2022/09/06 03:38:32;;;;;;;9.47;7.10;;;17.40;99.90;;;;;;4994250;28;20195;-71
2022/09/06 03:40:57;;;;;;;13.03;7.90;;;17.40;99.90;;;;;;4992773;28;20204;-71
2022/09/06 03:43:25;;;;;;;8.03;6.87;;;17.40;99.90;;;;;;4993988;28;20259;-71
2022/09/06 03:45:53;;;;;;;8.90;8.00;;;17.40;99.90;;;;;;4994108;28;20176;-72
2022/09/06 03:48:20;;;;;;;8.27;6.40;;;17.40;99.90;;;;;;4994168;28;20386;-71
2022/09/06 03:50:48;;;;;;;8.50;7.70;;;17.30;99.90;;;;;;4993617;28;20473;-71
2022/09/06 03:53:15;;;;;;;12.57;9.40;;;17.30;99.90;;;;;;4993908;28;20449;-72
2022/09/06 03:55:44;;;;;;;8.33;7.53;;;17.30;99.90;;;;;;4993839;28;20443;-71
2022/09/06 03:58:10;;;;;;;9.80;8.03;;;17.30;99.90;;;;;;4994050;28;20411;-71
2022/09/06 04:00:36;;;;;;;11.10;7.70;;;17.10;99.90;;;;;;4993825;28;20461;-72
2022/09/06 04:03:02;;;;;;;10.13;7.70;;;17.10;99.90;;;;;;4994130;28;20415;-72
2022/09/06 04:05:27;;;;;;;7.73;7.00;;;17.10;99.90;;;;;;4992754;28;20181;-72
2022/09/06 04:07:53;;;;;;;8.53;7.63;;;17.00;99.90;;;;;;4992615;28;20279;-72
2022/09/06 04:10:18;;;;;;;16.80;7.23;;;17.00;99.90;;;;;;4993435;28;20199;-71
2022/09/06 04:12:44;;;;;;;8.23;7.43;;;16.90;99.90;;;;;;4993808;28;20168;-71
2022/09/06 04:15:10;;;;;;;11.97;8.50;;;16.90;99.90;;;;;;4993787;28;20411;-71
2022/09/06 04:17:35;;;;;;;10.63;7.17;;;16.70;99.90;;;;;;4993681;28;20198;-72
2022/09/06 04:20:01;;;;;;;8.37;7.57;;;16.70;99.90;;;;;;4993393;28;20189;-71
2022/09/06 04:22:27;;;;;;;9.23;7.57;;;16.70;99.90;;;;;;4993614;28;20206;-72
2022/09/06 04:24:53;;;;;;;12.67;8.10;;;16.60;99.90;;;;;;4992572;28;20526;-72
2022/09/06 04:27:19;;;;;;;9.13;7.50;;;16.60;99.90;;;;;;4993756;28;20191;-72
2022/09/06 04:29:44;;;;;;;8.73;7.83;;;16.60;99.90;;;;;;4993237;28;20211;-70
2022/09/06 04:32:10;;;;;;;11.23;8.33;;;16.60;99.90;;;;;;4993625;28;20208;-71
2022/09/06 04:34:35;;;;;;;9.90;7.73;;;16.60;99.90;;;;;;4992480;28;20200;-72
2022/09/06 04:37:01;;;;;;;14.73;8.43;;;16.60;99.90;;;;;;4992379;28;20672;-71
2022/09/06 04:39:26;;;;;;;11.13;8.40;;;16.60;99.90;;;;;;4993444;28;20271;-71
2022/09/06 04:41:52;;;;;;;9.47;7.70;;;16.60;99.90;;;;;;4991755;28;20295;-71
2022/09/06 04:44:17;;;;;;;7.73;7.03;;;16.60;99.90;;;;;;4993552;28;20631;-72
2022/09/06 04:46:43;;;;;;;9.80;7.70;;;16.60;99.90;;;;;;4994895;28;20180;-71
2022/09/06 04:49:09;;;;;;;10.83;8.60;;;16.50;99.90;;;;;;4997473;28;20723;-72
2022/09/06 04:51:36;;;;;;;12.00;8.53;;;16.50;99.90;;;;;;4997137;28;20197;-71
2022/09/06 04:54:01;;;;;;;11.73;8.70;;;16.40;99.90;;;;;;4995923;28;20220;-71
2022/09/06 04:56:27;;;;;;;12.00;7.87;;;16.30;99.90;;;;;;4997218;28;20419;-71
2022/09/06 04:58:54;;;;;;;9.07;7.93;;;16.30;99.90;;;;;;4995951;28;20188;-72
2022/09/06 05:01:20;;;;;;;10.03;7.97;;;16.30;99.90;;;;;;4995122;28;20211;-71
2022/09/06 05:03:46;;;;;;;12.40;7.50;;;16.30;99.90;;;;;;4996988;28;20394;-71
2022/09/06 05:06:23;;;;;;;8.57;7.67;;;16.30;99.90;;;;;;4996953;28;20535;-71
2022/09/06 05:08:49;;;;;;;8.77;7.67;;;16.30;99.90;;;;;;4995540;28;20943;-71
2022/09/06 05:11:15;;;;;;;10.60;9.07;;;16.30;99.90;;;;;;4996698;28;20439;-71
2022/09/06 05:13:44;;;;;;;10.90;8.57;;;16.20;99.90;;;;;;4996885;28;20504;-71
2022/09/06 05:16:09;;;;;;;9.77;8.83;;;16.20;99.90;;;;;;4996574;28;20443;-72
2022/09/06 05:18:35;;;;;;;11.13;8.70;;;16.20;99.90;;;;;;4995443;28;20582;-72
2022/09/06 05:21:01;;;;;;;11.90;7.87;;;16.20;99.90;;;;;;4995053;28;20200;-71
2022/09/06 05:23:27;;;;;;;8.63;7.77;;;16.20;99.90;;;;;;4996405;28;20188;-70
2022/09/06 05:25:53;;;;;;;12.13;8.77;;;16.20;99.90;;;;;;4996662;28;20412;-71
2022/09/06 05:28:19;;;;;;;11.57;8.20;;;16.20;99.90;;;;;;4996620;28;20502;-70
2022/09/06 05:30:45;;;;;;;8.93;8.03;;;16.20;99.90;;;;;;4996127;28;20489;-71
2022/09/06 05:33:12;;;;;;;10.00;8.90;;;16.30;99.90;;;;;;4996413;28;20176;-71
2022/09/06 05:35:38;;;;;;;11.17;8.20;;;16.30;99.90;;;;;;4995061;28;20414;-71
2022/09/06 05:38:04;;;;;;;9.07;7.97;;;16.30;99.90;;;;;;4996248;28;20415;-71
2022/09/06 05:40:29;;;;;;;8.57;7.67;;;16.30;99.90;;;;;;4995924;28;20283;-71
2022/09/06 05:42:55;;;;;;;10.60;8.43;;;16.30;99.90;;;;;;4996288;28;20198;-70
2022/09/06 05:45:20;;;;;;;10.40;8.40;;;16.30;99.90;;;;;;4995101;28;20242;-71
2022/09/06 05:47:46;;;;;;;14.50;9.40;;;16.40;99.90;;;;;;4996336;28;20188;-70
2022/09/06 05:50:12;;;;;;;12.43;8.30;;;16.40;99.90;;;;;;4994534;28;21056;-72
2022/09/06 05:52:38;;;;;;;13.20;8.70;;;16.50;99.90;;;;;;4996237;28;20208;-71
2022/09/06 05:55:04;;;;;;;9.50;8.57;;;16.50;99.90;;;;;;4996061;28;20464;-71
2022/09/06 05:57:30;;;;;;;12.00;8.53;;;16.60;99.90;;;;;;4995397;28;20427;-72
2022/09/06 05:59:56;;;;;;;11.10;8.70;;;16.60;99.90;;;;;;4995599;28;20426;-71
2022/09/06 06:02:22;;;;;;;9.50;8.60;;;16.70;99.90;;;;;;4996079;28;20613;-70
2022/09/06 06:04:48;;;;;;;8.90;7.77;;;16.70;99.90;;;;;;4996018;28;20271;-71
2022/09/06 06:07:14;;;;;;;9.47;7.97;;;16.70;99.90;;;;;;4995966;28;20492;-70
2022/09/06 06:09:40;;;;;;;8.80;7.27;;;16.70;99.90;;;;;;4994369;28;20537;-71
2022/09/06 06:12:06;;;;;;;7.97;7.10;;;16.80;99.90;;;;;;4995756;28;20200;-71
2022/09/06 06:14:32;;;;;;;9.97;8.27;;;16.80;99.90;;;;;;4995904;28;20398;-71
2022/09/06 06:16:58;;;;;;;10.20;8.40;;;16.90;99.90;;;;;;4995931;28;20411;-72
2022/09/06 06:19:25;;;;;;;10.07;6.77;;;17.00;99.90;;;;;;4995813;28;20983;-72
2022/09/06 06:21:51;;;;;;;9.20;7.60;;;17.00;99.90;;;;;;4995710;28;20490;-72
2022/09/06 06:24:17;;;;;;;8.20;7.43;;;17.10;99.90;;;;;;4994293;28;20798;-71
2022/09/06 06:26:43;;;;;;;8.20;7.40;;;17.20;99.90;;;;;;4994422;28;20482;-72
2022/09/06 06:29:09;;;;;;;10.70;8.17;;;17.20;99.90;;;;;;4995554;28;20214;-72
2022/09/06 06:31:36;;;;;;;8.23;6.63;;;17.30;99.90;;;;;;4995082;28;20422;-71
2022/09/06 06:34:02;;;;;;;8.03;7.27;;;17.40;99.90;;;;;;4995304;28;20180;-72
2022/09/06 06:36:30;;;;;;;7.27;6.50;;;17.30;99.90;;;;;;4995291;28;20450;-72
2022/09/06 06:38:56;;;;;;;8.80;7.90;;;17.30;99.90;;;;;;4995259;28;20435;-71
2022/09/06 06:41:24;;;;;;;10.33;8.30;;;17.30;99.90;;;;;;4994875;28;20446;-72
2022/09/06 06:43:58;;;;;;;10.27;6.60;;;17.30;99.90;;;;;;4995389;28;20768;-71
2022/09/06 06:46:26;;;;;;;9.70;8.20;;;17.40;99.90;;;;;;4995129;28;20423;-73
2022/09/06 06:48:55;;;;;;;7.07;6.47;;;17.40;99.90;;;;;;4994930;28;20402;-72
2022/09/06 06:51:22;;;;;;;7.30;6.50;;;17.60;99.90;;;;;;4994805;28;20450;-71
2022/09/06 06:53:48;;;;;;;7.27;6.50;;;17.60;99.90;;;;;;4995145;28;20435;-72
2022/09/06 06:56:30;;;;;;;7.97;7.17;;;17.70;99.90;;;;;;4995199;28;20430;-71
2022/09/06 06:58:58;;;;;;;9.63;6.77;;;17.70;99.90;;;;;;4994934;28;20180;-72
2022/09/06 07:01:25;;;;;;;8.67;7.57;;;17.80;99.90;;;;;;4994586;28;20439;-71
2022/09/06 07:03:51;;;;;;;6.20;5.70;;;17.90;99.90;;;;;;4994950;28;20782;-72
2022/09/06 07:06:18;;;;;;;6.80;6.20;;;18.00;99.90;;;;;;4993677;28;20420;-71
2022/09/06 07:08:43;;;;;;;6.87;5.67;;;18.10;99.90;;;;;;4994463;28;20784;-72
2022/09/06 07:11:11;;;;;;;10.03;5.80;;;18.10;99.90;;;;;;4993003;28;20447;-71
2022/09/06 07:13:37;;;;;;;7.83;6.70;;;18.20;99.90;;;;;;4994757;28;20177;-71
2022/09/06 07:16:16;;;;;;;7.53;6.73;;;18.30;99.90;;;;;;4994665;28;20427;-72
2022/09/06 07:18:42;;;;;;;13.47;6.77;;;18.40;99.90;;;;;;4994565;28;20500;-72
2022/09/06 07:21:10;;;;;;;7.83;6.10;;;18.60;99.90;;;;;;4993969;28;20947;-72
2022/09/06 07:23:36;;;;;;;7.77;6.33;;;18.70;99.90;;;;;;4977342;28;20507;-71
2022/09/06 07:26:01;;;;;;;7.77;5.83;;;18.80;99.90;;;;;;4993275;28;20419;-72
2022/09/06 07:28:27;;;;;;;7.57;6.63;;;18.90;99.90;;;;;;4994528;28;20263;-72
2022/09/06 07:30:54;;;;;;;7.10;6.00;;;19.00;99.90;;;;;;4992821;28;20212;-72
2022/09/06 07:33:20;;;;;;;10.73;6.40;;;19.10;99.90;;;;;;4994352;28;20191;-72
2022/09/06 07:36:00;;;;;;;7.00;6.30;;;19.20;99.90;;;;;;4994347;28;20446;-72
2022/09/06 07:38:27;;;;;;;10.07;6.10;;;19.30;99.90;;;;;;4994396;28;20176;-73
2022/09/06 07:40:55;;;;;;;9.40;6.13;;;19.40;99.90;;;;;;4993681;28;20452;-72
2022/09/06 07:43:21;;;;;;;12.40;6.60;;;19.40;99.90;;;;;;4994159;28;20446;-72
2022/09/06 07:45:46;;;;;;;7.50;4.73;;;19.60;99.90;;;;;;4994060;28;20416;-72
2022/09/06 07:48:12;;;;;;;6.00;4.57;;;19.80;99.90;;;;;;4994167;28;20920;-71
2022/09/06 07:50:37;;;;;;;5.47;3.77;;;19.90;99.90;;;;;;4993597;28;20291;-72
2022/09/06 07:53:07;;;;;;;5.37;4.83;;;20.10;99.90;;;;;;4992740;28;20738;-72
2022/09/06 07:55:33;;;;;;;3.63;2.90;;;20.20;99.90;;;;;;4992676;28;20207;-72
2022/09/06 07:57:58;;;;;;;6.27;3.30;;;20.30;99.90;;;;;;4994006;28;20777;-72
2022/09/06 08:00:24;;;;;;;4.73;3.23;;;20.30;99.90;;;;;;4992421;28;20208;-72
2022/09/06 08:02:50;;;;;;;5.50;3.27;;;20.50;99.90;;;;;;4993974;28;20644;-72
2022/09/06 08:05:15;;;;;;;8.87;3.63;;;20.60;99.90;;;;;;4993886;28;20184;-71
2022/09/06 08:07:41;;;;;;;4.30;3.13;;;20.60;99.90;;;;;;4992985;28;20184;-71
2022/09/06 08:10:10;;;;;;;6.23;2.53;;;20.80;99.90;;;;;;4993369;28;20291;-73
2022/09/06 08:12:36;;;;;;;4.43;3.17;;;20.90;99.90;;;;;;4993115;28;20180;-74
2022/09/06 08:15:01;;;;;;;3.90;2.60;;;21.00;99.90;;;;;;4976515;28;20426;-74
2022/09/06 08:17:27;;;;;;;3.47;2.43;;;21.20;99.90;;;;;;4992668;28;20187;-73
2022/09/06 08:19:53;;;;;;;2.70;2.20;;;21.20;99.90;;;;;;4992494;28;20179;-71
2022/09/06 08:22:18;;;;;;;6.27;2.10;;;21.20;99.90;;;;;;4995029;28;20294;-73
2022/09/06 08:24:44;;;;;;;2.30;1.87;;;21.30;99.90;;;;;;4997509;28;20188;-74
2022/09/06 08:27:10;;;;;;;3.00;1.83;;;21.50;99.90;;;;;;4997791;28;20184;-75
2022/09/06 08:29:36;;;;;;;2.60;1.53;;;21.70;99.90;;;;;;4997460;28;20200;-75
2022/09/06 08:32:02;;;;;;;2.50;1.80;;;22.20;99.90;;;;;;4997481;28;20970;-74
2022/09/06 08:34:28;;;;;;;4.60;2.27;;;22.60;99.90;;;;;;4997744;28;20653;-75
2022/09/06 08:36:53;;;;;;;2.00;1.90;;;23.20;99.90;;;;;;4997596;28;20812;-75
2022/09/06 08:39:19;;;;;;;1.30;1.20;;;23.60;99.90;;;;;;4996356;28;20427;-74
2022/09/06 08:42:01;;;;;;;2.73;1.83;;;23.90;99.90;;;;;;4995854;28;20211;-70
2022/09/06 08:44:40;;;;;;;2.50;1.87;;;24.40;99.90;;;;;;4996222;28;20233;-72
2022/09/06 08:47:11;;;;;;;1.60;1.30;;;24.70;99.90;;;;;;4996063;28;20942;-74
2022/09/06 08:50:01;;;;;;;6.17;2.17;;;25.40;99.90;;;;;;4997089;28;20453;-74
2022/09/06 08:52:33;;;;;;;4.63;1.40;;;25.90;99.90;;;;;;4997174;28;20943;-74
2022/09/06 08:55:04;;;;;;;1.70;1.30;;;26.10;99.90;;;;;;4997131;28;20915;-74
2022/09/06 08:57:51;;;;;;;2.27;1.40;;;26.50;99.90;;;;;;4996503;28;20422;-76
2022/09/06 09:00:18;;;;;;;2.40;1.40;;;26.70;99.90;;;;;;4996817;28;20407;-75
2022/09/06 09:03:03;;;;;;;3.80;1.33;;;26.70;99.90;;;;;;4997389;28;20422;-74
2022/09/06 09:05:32;;;;;;;2.67;1.67;;;27.40;99.90;;;;;;4997306;28;20438;-75
2022/09/06 09:08:19;;;;;;;3.63;1.57;;;28.20;99.90;;;;;;4997026;28;20410;-75
2022/09/06 09:10:48;;;;;;;3.70;1.37;;;27.90;99.90;;;;;;4996103;28;20465;-74
2022/09/06 09:13:38;;;;;;;2.53;1.30;;;28.10;99.90;;;;;;4997016;28;20411;-74
2022/09/06 09:16:04;;;;;;;5.00;1.50;;;28.70;99.90;;;;;;4996736;28;20807;-74
2022/09/06 09:18:35;;;;;;;1.60;1.10;;;29.00;99.90;;;;;;4996919;28;20407;-74
2022/09/06 09:21:02;;;;;;;4.87;1.83;;;29.20;99.90;;;;;;4996450;28;20448;-75
2022/09/06 09:23:29;;;;;;;2.40;1.37;;;29.70;99.90;;;;;;4996768;28;20434;-74
2022/09/06 09:25:59;;;;;;;4.77;1.50;;;29.00;99.90;;;;;;4996707;28;20481;-75
2022/09/06 09:28:24;;;;;;;4.20;1.53;;;28.80;99.90;;;;;;4996796;28;20415;-76
2022/09/06 09:30:55;;;;;;;2.63;1.20;;;29.10;99.90;;;;;;4994972;28;21068;-75
2022/09/06 09:33:29;;;;;;;1.43;1.20;;;29.90;99.90;;;;;;4996491;28;20637;-75
2022/09/06 09:35:58;;;;;;;6.53;1.73;;;30.30;99.90;;;;;;4996511;28;20834;-72
2022/09/06 09:38:28;;;;;;;4.60;1.43;;;30.10;99.90;;;;;;4996544;28;20407;-73
2022/09/06 09:41:05;;;;;;;1.33;1.23;;;30.90;99.90;;;;;;4994742;28;20531;-71
2022/09/06 09:43:38;;;;;;;2.70;1.43;;;31.30;99.90;;;;;;4996338;28;20436;-73
2022/09/06 09:46:31;;;;;;;1.67;1.30;;;31.50;99.90;;;;;;4995592;28;20446;-74
2022/09/06 09:49:08;;;;;;;2.27;1.50;;;31.90;99.90;;;;;;4993527;28;20763;-75
2022/09/06 09:51:41;;;;;;;3.67;1.00;;;32.10;99.90;;;;;;4993498;28;20447;-73
2022/09/06 09:54:13;;;;;;;2.70;1.70;;;31.80;99.90;;;;;;4993234;28;20442;-75
2022/09/06 09:56:39;;;;;;;1.07;0.97;;;31.40;99.90;;;;;;4993406;28;20426;-75
2022/09/06 09:59:16;;;;;;;5.00;1.33;;;31.60;99.90;;;;;;4993704;28;20423;-76
2022/09/06 10:01:41;;;;;;;3.40;1.53;;;31.90;99.90;;;;;;4992347;28;20203;-75
2022/09/06 10:04:10;;;;;;;4.53;1.30;;;33.40;99.90;;;;;;4994603;28;20430;-75
2022/09/06 10:06:37;;;;;;;5.30;1.50;;;33.10;99.90;;;;;;4993587;28;20739;-75
2022/09/06 10:09:32;;;;;;;5.00;1.53;;;33.40;99.90;;;;;;4984296;28;20474;-74
2022/09/06 10:11:58;;;;;;;2.00;1.27;;;33.80;99.90;;;;;;4976211;28;20431;-74
2022/09/06 10:14:48;;;;;;;2.27;1.20;;;33.80;99.90;;;;;;4990523;28;20420;-75
2022/09/06 10:17:34;;;;;;;2.80;1.20;;;33.50;99.90;;;;;;4976168;28;20407;-76
2022/09/06 10:20:06;;;;;;;2.40;1.30;;;33.10;99.90;;;;;;4975905;28;20917;-73
2022/09/06 10:22:57;;;;;;;5.80;1.40;;;33.30;99.90;;;;;;4979630;28;20411;-76
2022/09/06 10:25:34;;;;;;;5.43;1.10;;;33.20;99.90;;;;;;4993464;28;20433;-77
2022/09/06 10:28:11;;;;;;;1.50;1.00;;;33.40;99.50;;;;;;4994061;28;20410;-78
2022/09/06 10:31:05;;;;;;;3.13;1.53;;;33.80;99.90;;;;;;4992485;28;20890;-77
2022/09/06 10:33:57;;;;;;;2.37;1.30;;;33.90;97.20;;;;;;4992520;28;20426;-76
2022/09/06 10:36:39;;;;;;;1.30;1.10;;;33.00;99.50;;;;;;4992692;28;20426;-75
2022/09/06 10:39:47;;;;;;;2.70;1.40;;;33.00;99.90;;;;;;4992662;28;20434;-75
2022/09/06 10:42:24;;;;;;;1.70;1.10;;;33.20;99.00;;;;;;4992985;28;20461;-74
2022/09/06 10:45:17;;;;;;;1.67;1.47;;;33.20;98.70;;;;;;4992244;28;20457;-74
2022/09/06 10:48:01;;;;;;;1.43;1.10;;;32.80;97.50;;;;;;4993514;28;20407;-76
2022/09/06 10:50:53;;;;;;;1.37;1.20;;;33.10;97.50;;;;;;4991990;28;20533;-76
2022/09/06 10:53:33;;;;;;;3.63;1.23;;;33.10;98.30;;;;;;4993577;28;20981;-76
2022/09/06 10:56:07;;;;;;;3.20;1.50;;;33.80;96.60;;;;;;4995047;28;20418;-77
2022/09/06 10:58:49;;;;;;;1.20;1.10;;;33.20;94.20;;;;;;4991761;28;20506;-77
2022/09/06 11:01:29;;;;;;;1.63;1.03;;;31.60;98.50;;;;;;4990823;28;20450;-75
2022/09/06 11:03:58;;;;;;;1.50;0.93;;;32.70;96.10;;;;;;4989558;28;20692;-76
2022/09/06 11:06:30;;;;;;;1.10;1.00;;;32.80;96.10;;;;;;4992842;28;20415;-74
2022/09/06 11:09:25;;;;;;;5.87;1.37;;;32.80;95.40;;;;;;4993360;28;20477;-77
2022/09/06 11:12:15;;;;;;;1.50;1.30;;;33.40;96.20;;;;;;4958308;28;20441;-77
2022/09/06 11:14:41;;;;;;;3.07;1.07;;;34.20;93.60;;;;;;4994262;28;20411;-78
2022/09/06 11:17:30;;;;;;;3.10;1.50;;;33.90;94.30;;;;;;4994665;28;20854;-75
2022/09/06 11:20:22;;;;;;;5.17;1.17;;;34.00;91.30;;;;;;4964703;28;20563;-76
2022/09/06 11:23:19;;;;;;;2.27;1.30;;;33.10;92.90;;;;;;4993798;28;20429;-77
2022/09/06 11:26:12;;;;;;;5.13;1.37;;;32.50;93.00;;;;;;4994497;28;20806;-76
2022/09/06 11:28:52;;;;;;;2.13;1.50;;;32.70;96.00;;;;;;4994572;28;20399;-75
2022/09/06 11:31:33;;;;;;;6.60;1.47;;;31.90;95.80;;;;;;4994148;28;20492;-75
2022/09/06 11:34:11;;;;;;;2.03;1.53;;;32.30;94.60;;;;;;4994469;28;20430;-75
2022/09/06 11:36:44;;;;;;;1.73;1.63;;;32.40;95.20;;;;;;4994368;28;20875;-76
2022/09/06 11:39:10;;;;;;;2.60;1.30;;;32.50;95.80;;;;;;4994272;28;20541;-74
2022/09/06 11:41:42;;;;;;;2.10;1.37;;;32.10;94.50;;;;;;4993353;28;20794;-75
2022/09/06 11:44:09;;;;;;;2.67;1.30;;;32.80;95.40;;;;;;4990722;28;20423;-77
2022/09/06 11:46:34;;;;;;;3.97;2.07;;;33.30;92.80;;;;;;4993452;28;20407;-76
2022/09/06 11:49:32;;;;;;;1.90;1.50;;;33.10;94.80;;;;;;4991533;28;20800;-77
2022/09/06 11:51:58;;;;;;;3.93;2.93;;;33.20;93.30;;;;;;4993060;28;20199;-76
2022/09/06 11:54:39;;;;;;;3.40;1.40;;;33.00;94.30;;;;;;4993491;28;20435;-76
2022/09/06 11:57:20;;;;;;;2.20;1.73;;;32.70;95.20;;;;;;4992186;28;20511;-76
2022/09/06 11:59:46;;;;;;;2.67;1.30;;;32.80;95.70;;;;;;4991558;28;20425;-79
2022/09/06 12:02:33;;;;;;;2.70;1.30;;;33.50;96.40;;;;;;4993355;28;20514;-76
2022/09/06 12:04:59;;;;;;;3.47;1.93;;;32.90;95.40;;;;;;4992059;28;20414;-76
2022/09/06 12:07:26;;;;;;;6.40;2.30;;;32.80;94.30;;;;;;4993418;28;20407;-76
2022/09/06 12:09:52;;;;;;;3.63;2.00;;;32.70;94.60;;;;;;4991852;28;20900;-77
2022/09/06 12:12:44;;;;;;;2.80;1.70;;;32.60;95.50;;;;;;4993340;28;20441;-76
2022/09/06 12:15:27;;;;;;;4.40;1.87;;;32.90;94.50;;;;;;4991848;28;20411;-77
2022/09/06 12:17:53;;;;;;;4.87;2.33;;;32.90;93.30;;;;;;4991863;28;20418;-76
2022/09/06 12:20:46;;;;;;;3.17;1.73;;;32.90;93.20;;;;;;4992962;28;20454;-74
2022/09/06 12:23:34;;;;;;;3.63;1.60;;;32.80;92.70;;;;;;4993804;28;20506;-76
2022/09/06 12:26:04;;;;;;;2.20;1.30;;;32.90;90.90;;;;;;4993708;28;20423;-76
2022/09/06 12:28:46;;;;;;;3.47;1.73;;;32.70;90.40;;;;;;4992641;28;20422;-77
2022/09/06 12:31:27;;;;;;;8.60;1.93;;;32.70;90.10;;;;;;4992716;28;20466;-75
2022/09/06 12:33:53;;;;;;;2.57;1.40;;;32.60;86.10;;;;;;4993595;28;20502;-76
2022/09/06 12:36:29;;;;;;;3.33;1.50;;;32.70;87.60;;;;;;4993160;28;20419;-75
2022/09/06 12:38:56;;;;;;;5.13;1.40;;;32.60;86.20;;;;;;4993599;28;20406;-75
2022/09/06 12:41:23;;;;;;;3.17;1.73;;;32.90;87.80;;;;;;4993089;28;20472;-75
2022/09/06 12:43:49;;;;;;;6.30;1.67;;;33.30;88.50;;;;;;4993418;28;20441;-75
2022/09/06 12:46:15;;;;;;;4.33;1.83;;;33.80;88.70;;;;;;4993525;28;20895;-77
2022/09/06 12:48:43;;;;;;;2.87;1.60;;;33.80;90.10;;;;;;4993481;28;20172;-77
2022/09/06 12:51:18;;;;;;;5.63;3.70;;;33.80;86.80;;;;;;4991746;28;20826;-75
2022/09/06 12:53:57;;;;;;;2.40;1.50;;;33.80;89.60;;;;;;4993471;28;20405;-76
2022/09/06 12:56:25;;;;;;;8.37;1.73;;;34.10;90.20;;;;;;4993581;28;20468;-75
2022/09/06 12:58:51;;;;;;;3.10;1.77;;;33.90;88.70;;;;;;4993500;28;20414;-76
2022/09/06 13:01:29;;;;;;;3.60;1.83;;;33.80;86.80;;;;;;4991763;28;20430;-76
2022/09/06 13:04:04;;;;;;;4.17;1.90;;;34.00;88.30;;;;;;4993311;28;20179;-74